sensor_id;sensor_type;location;lat;lon;timestamp;temperature;humidity
8778;DHT22;4425;50.872;4.712;2023-02-01T00:01:09;7.20;99.90
8778;DHT22;4425;50.872;4.712;2023-02-01T00:03:37;7.20;99.90
8778;DHT22;4425;50.872;4.712;2023-02-01T00:06:04;7.40;99.90
8778;DHT22;4425;50.872;4.712;2023-02-01T00:08:31;7.20;99.90
8778;DHT22;4425;50.872;4.712;2023-02-01T00:11:00;7.20;99.90
8778;DHT22;4425;50.872;4.712;2023-02-01T00:13:31;7.30;99.90
8778;DHT22;4425;50.872;4.712;2023-02-01T00:16:07;7.30;99.90
8778;DHT22;4425;50.872;4.712;2023-02-01T00:18:35;7.30;99.90
8778;DHT22;4425;50.872;4.712;2023-02-01T00:21:04;7.30;99.90
8778;DHT22;4425;50.872;4.712;2023-02-01T00:23:32;7.40;99.90
8778;DHT22;4425;50.872;4.712;2023-02-01T00:26:02;7.40;99.90
8778;DHT22;4425;50.872;4.712;2023-02-01T00:28:29;7.40;99.90
8778;DHT22;4425;50.872;4.712;2023-02-01T00:30:57;7.30;99.90
8778;DHT22;4425;50.872;4.712;2023-02-01T00:33:24;7.40;99.90
8778;DHT22;4425;50.872;4.712;2023-02-01T00:35:56;7.30;99.90
8778;DHT22;4425;50.872;4.712;2023-02-01T00:38:24;7.30;99.90
8778;DHT22;4425;50.872;4.712;2023-02-01T00:40:51;7.40;99.90
8778;DHT22;4425;50.872;4.712;2023-02-01T00:43:19;7.40;99.90
8778;DHT22;4425;50.872;4.712;2023-02-01T00:45:47;7.40;99.90
8778;DHT22;4425;50.872;4.712;2023-02-01T00:48:14;7.40;99.90
8778;DHT22;4425;50.872;4.712;2023-02-01T00:50:41;7.40;99.90
8778;DHT22;4425;50.872;4.712;2023-02-01T00:53:08;7.30;99.90
8778;DHT22;4425;50.872;4.712;2023-02-01T00:55:35;7.30;99.90
8778;DHT22;4425;50.872;4.712;2023-02-01T00:58:03;7.40;99.90
8778;DHT22;4425;50.872;4.712;2023-02-01T01:00:33;7.30;99.90
8778;DHT22;4425;50.872;4.712;2023-02-01T01:03:00;7.30;99.90
8778;DHT22;4425;50.872;4.712;2023-02-01T01:05:26;7.30;99.90
8778;DHT22;4425;50.872;4.712;2023-02-01T01:07:54;7.40;99.90
8778;DHT22;4425;50.872;4.712;2023-02-01T01:10:21;7.40;99.90
8778;DHT22;4425;50.872;4.712;2023-02-01T01:12:48;7.40;99.90
8778;DHT22;4425;50.872;4.712;2023-02-01T01:15:16;7.50;99.90
8778;DHT22;4425;50.872;4.712;2023-02-01T01:17:44;7.40;99.90
8778;DHT22;4425;50.872;4.712;2023-02-01T01:20:12;7.40;99.90
8778;DHT22;4425;50.872;4.712;2023-02-01T01:22:39;7.40;99.90
8778;DHT22;4425;50.872;4.712;2023-02-01T01:25:06;7.30;99.90
8778;DHT22;4425;50.872;4.712;2023-02-01T01:27:33;7.30;99.90
8778;DHT22;4425;50.872;4.712;2023-02-01T01:30:00;7.30;99.90
8778;DHT22;4425;50.872;4.712;2023-02-01T01:32:29;7.30;99.90
8778;DHT22;4425;50.872;4.712;2023-02-01T01:34:58;7.40;99.90
8778;DHT22;4425;50.872;4.712;2023-02-01T01:37:25;7.50;99.90
8778;DHT22;4425;50.872;4.712;2023-02-01T01:39:52;7.30;99.90
8778;DHT22;4425;50.872;4.712;2023-02-01T01:42:22;7.30;99.90
8778;DHT22;4425;50.872;4.712;2023-02-01T01:44:58;7.40;99.90
8778;DHT22;4425;50.872;4.712;2023-02-01T01:47:27;7.40;99.90
8778;DHT22;4425;50.872;4.712;2023-02-01T01:49:55;7.40;99.90
8778;DHT22;4425;50.872;4.712;2023-02-01T01:52:24;7.40;99.90
8778;DHT22;4425;50.872;4.712;2023-02-01T01:54:53;7.40;99.90
8778;DHT22;4425;50.872;4.712;2023-02-01T01:57:24;7.40;99.90
8778;DHT22;4425;50.872;4.712;2023-02-01T01:59:57;7.40;99.90
8778;DHT22;4425;50.872;4.712;2023-02-01T02:02:26;7.30;99.90
8778;DHT22;4425;50.872;4.712;2023-02-01T02:04:53;7.40;99.90
8778;DHT22;4425;50.872;4.712;2023-02-01T02:07:25;7.30;99.90
8778;DHT22;4425;50.872;4.712;2023-02-01T02:09:53;7.30;99.90
8778;DHT22;4425;50.872;4.712;2023-02-01T02:12:20;7.10;99.90
8778;DHT22;4425;50.872;4.712;2023-02-01T02:14:47;7.20;99.90
8778;DHT22;4425;50.872;4.712;2023-02-01T02:17:26;7.30;99.90
8778;DHT22;4425;50.872;4.712;2023-02-01T02:20:28;7.30;99.90
8778;DHT22;4425;50.872;4.712;2023-02-01T02:26:31;7.30;99.90
8778;DHT22;4425;50.872;4.712;2023-02-01T02:29:33;7.30;99.90
8778;DHT22;4425;50.872;4.712;2023-02-01T02:35:16;7.20;99.90
8778;DHT22;4425;50.872;4.712;2023-02-01T02:37:52;7.10;99.90
8778;DHT22;4425;50.872;4.712;2023-02-01T02:40:25;7.00;99.90
8778;DHT22;4425;50.872;4.712;2023-02-01T02:43:00;6.90;99.90
8778;DHT22;4425;50.872;4.712;2023-02-01T02:45:51;6.70;99.90
8778;DHT22;4425;50.872;4.712;2023-02-01T02:48:42;6.80;99.90
8778;DHT22;4425;50.872;4.712;2023-02-01T02:51:15;6.70;99.90
8778;DHT22;4425;50.872;4.712;2023-02-01T02:54:07;6.70;99.90
8778;DHT22;4425;50.872;4.712;2023-02-01T02:56:53;6.70;99.90
8778;DHT22;4425;50.872;4.712;2023-02-01T02:59:41;6.70;99.90
8778;DHT22;4425;50.872;4.712;2023-02-01T03:02:28;6.70;99.90
8778;DHT22;4425;50.872;4.712;2023-02-01T03:05:14;6.70;99.90
8778;DHT22;4425;50.872;4.712;2023-02-01T03:08:01;6.70;99.90
8778;DHT22;4425;50.872;4.712;2023-02-01T03:10:35;6.60;99.90
8778;DHT22;4425;50.872;4.712;2023-02-01T03:13:07;6.60;99.90
8778;DHT22;4425;50.872;4.712;2023-02-01T03:15:38;6.70;99.90
8778;DHT22;4425;50.872;4.712;2023-02-01T03:18:13;6.70;99.90
8778;DHT22;4425;50.872;4.712;2023-02-01T03:20:46;6.60;99.90
8778;DHT22;4425;50.872;4.712;2023-02-01T03:23:20;6.70;99.90
8778;DHT22;4425;50.872;4.712;2023-02-01T03:25:48;6.70;99.90
8778;DHT22;4425;50.872;4.712;2023-02-01T03:28:17;6.70;99.90
8778;DHT22;4425;50.872;4.712;2023-02-01T03:30:48;6.70;99.90
8778;DHT22;4425;50.872;4.712;2023-02-01T03:33:17;6.70;99.90
8778;DHT22;4425;50.872;4.712;2023-02-01T03:36:03;6.80;99.90
8778;DHT22;4425;50.872;4.712;2023-02-01T03:38:38;6.70;99.90
8778;DHT22;4425;50.872;4.712;2023-02-01T03:41:12;6.70;99.90
8778;DHT22;4425;50.872;4.712;2023-02-01T03:43:49;6.80;99.90
8778;DHT22;4425;50.872;4.712;2023-02-01T03:46:25;6.80;99.90
8778;DHT22;4425;50.872;4.712;2023-02-01T03:48:53;6.70;99.90
8778;DHT22;4425;50.872;4.712;2023-02-01T03:51:22;6.80;99.90
8778;DHT22;4425;50.872;4.712;2023-02-01T03:53:53;6.80;99.90
8778;DHT22;4425;50.872;4.712;2023-02-01T03:56:22;6.70;99.90
8778;DHT22;4425;50.872;4.712;2023-02-01T03:58:49;6.70;99.90
8778;DHT22;4425;50.872;4.712;2023-02-01T04:01:26;6.70;99.90
8778;DHT22;4425;50.872;4.712;2023-02-01T04:03:53;6.60;99.90
8778;DHT22;4425;50.872;4.712;2023-02-01T04:06:20;6.60;99.90
8778;DHT22;4425;50.872;4.712;2023-02-01T04:08:47;6.60;99.90
8778;DHT22;4425;50.872;4.712;2023-02-01T04:11:16;6.50;99.90
8778;DHT22;4425;50.872;4.712;2023-02-01T04:13:43;6.50;99.90
8778;DHT22;4425;50.872;4.712;2023-02-01T04:16:10;6.60;99.90
8778;DHT22;4425;50.872;4.712;2023-02-01T04:18:37;6.40;99.90
8778;DHT22;4425;50.872;4.712;2023-02-01T04:21:05;6.40;99.90
8778;DHT22;4425;50.872;4.712;2023-02-01T04:23:31;6.40;99.90
8778;DHT22;4425;50.872;4.712;2023-02-01T04:25:59;6.20;99.90
8778;DHT22;4425;50.872;4.712;2023-02-01T04:28:28;6.30;99.90
8778;DHT22;4425;50.872;4.712;2023-02-01T04:30:56;6.30;99.90
8778;DHT22;4425;50.872;4.712;2023-02-01T04:33:24;6.30;99.90
8778;DHT22;4425;50.872;4.712;2023-02-01T04:35:51;6.30;99.90
8778;DHT22;4425;50.872;4.712;2023-02-01T04:38:20;6.30;99.90
8778;DHT22;4425;50.872;4.712;2023-02-01T04:40:48;6.20;99.90
8778;DHT22;4425;50.872;4.712;2023-02-01T04:43:16;6.20;99.90
8778;DHT22;4425;50.872;4.712;2023-02-01T04:45:48;6.20;99.90
8778;DHT22;4425;50.872;4.712;2023-02-01T04:48:16;6.20;99.90
8778;DHT22;4425;50.872;4.712;2023-02-01T04:50:43;6.20;99.90
8778;DHT22;4425;50.872;4.712;2023-02-01T04:53:13;6.20;99.90
8778;DHT22;4425;50.872;4.712;2023-02-01T04:55:40;6.20;99.90
8778;DHT22;4425;50.872;4.712;2023-02-01T04:58:07;6.10;99.90
8778;DHT22;4425;50.872;4.712;2023-02-01T05:00:34;6.10;99.90
8778;DHT22;4425;50.872;4.712;2023-02-01T05:03:03;6.10;99.90
8778;DHT22;4425;50.872;4.712;2023-02-01T05:05:30;6.00;99.90
8778;DHT22;4425;50.872;4.712;2023-02-01T05:07:57;6.00;99.90
8778;DHT22;4425;50.872;4.712;2023-02-01T05:10:23;6.00;99.90
8778;DHT22;4425;50.872;4.712;2023-02-01T05:12:50;6.00;99.90
8778;DHT22;4425;50.872;4.712;2023-02-01T05:15:34;6.00;99.90
8778;DHT22;4425;50.872;4.712;2023-02-01T05:18:03;5.90;99.90
8778;DHT22;4425;50.872;4.712;2023-02-01T05:20:31;5.90;99.90
8778;DHT22;4425;50.872;4.712;2023-02-01T05:22:58;5.90;99.90
8778;DHT22;4425;50.872;4.712;2023-02-01T05:25:25;5.90;99.90
8778;DHT22;4425;50.872;4.712;2023-02-01T05:27:53;5.90;99.90
8778;DHT22;4425;50.872;4.712;2023-02-01T05:30:21;5.90;99.90
8778;DHT22;4425;50.872;4.712;2023-02-01T05:32:49;5.90;99.90
8778;DHT22;4425;50.872;4.712;2023-02-01T05:35:18;5.90;99.90
8778;DHT22;4425;50.872;4.712;2023-02-01T05:37:45;5.90;99.90
8778;DHT22;4425;50.872;4.712;2023-02-01T05:40:13;5.80;99.90
8778;DHT22;4425;50.872;4.712;2023-02-01T05:42:40;5.80;99.90
8778;DHT22;4425;50.872;4.712;2023-02-01T05:45:08;5.80;99.90
8778;DHT22;4425;50.872;4.712;2023-02-01T05:47:35;5.70;99.90
8778;DHT22;4425;50.872;4.712;2023-02-01T05:50:04;5.60;99.90
8778;DHT22;4425;50.872;4.712;2023-02-01T05:52:33;5.70;99.90
8778;DHT22;4425;50.872;4.712;2023-02-01T05:55:02;5.70;99.90
8778;DHT22;4425;50.872;4.712;2023-02-01T05:57:29;5.60;99.90
8778;DHT22;4425;50.872;4.712;2023-02-01T05:59:56;5.60;99.90
8778;DHT22;4425;50.872;4.712;2023-02-01T06:02:23;5.60;99.90
8778;DHT22;4425;50.872;4.712;2023-02-01T06:04:50;5.60;99.90
8778;DHT22;4425;50.872;4.712;2023-02-01T06:07:18;5.60;99.90
8778;DHT22;4425;50.872;4.712;2023-02-01T06:09:47;5.50;99.90
8778;DHT22;4425;50.872;4.712;2023-02-01T06:12:14;5.50;99.90
8778;DHT22;4425;50.872;4.712;2023-02-01T06:14:41;5.50;99.90
8778;DHT22;4425;50.872;4.712;2023-02-01T06:17:09;5.50;99.90
8778;DHT22;4425;50.872;4.712;2023-02-01T06:19:36;5.50;99.90
8778;DHT22;4425;50.872;4.712;2023-02-01T06:22:02;5.50;99.90
8778;DHT22;4425;50.872;4.712;2023-02-01T06:24:31;5.50;99.90
8778;DHT22;4425;50.872;4.712;2023-02-01T06:27:04;5.50;99.90
8778;DHT22;4425;50.872;4.712;2023-02-01T06:29:31;5.50;99.90
8778;DHT22;4425;50.872;4.712;2023-02-01T06:31:58;5.50;99.90
8778;DHT22;4425;50.872;4.712;2023-02-01T06:34:27;5.50;99.90
8778;DHT22;4425;50.872;4.712;2023-02-01T06:36:55;5.40;99.90
8778;DHT22;4425;50.872;4.712;2023-02-01T06:39:22;5.50;99.90
8778;DHT22;4425;50.872;4.712;2023-02-01T06:41:50;5.50;99.90
8778;DHT22;4425;50.872;4.712;2023-02-01T06:44:18;5.60;99.90
8778;DHT22;4425;50.872;4.712;2023-02-01T06:46:46;5.50;99.90
8778;DHT22;4425;50.872;4.712;2023-02-01T06:49:13;5.30;99.90
8778;DHT22;4425;50.872;4.712;2023-02-01T06:51:40;5.50;99.90
8778;DHT22;4425;50.872;4.712;2023-02-01T06:54:07;5.50;99.90
8778;DHT22;4425;50.872;4.712;2023-02-01T06:56:34;5.50;99.90
8778;DHT22;4425;50.872;4.712;2023-02-01T06:59:06;5.50;99.90
8778;DHT22;4425;50.872;4.712;2023-02-01T07:01:49;5.50;99.90
8778;DHT22;4425;50.872;4.712;2023-02-01T07:04:16;5.30;99.90
8778;DHT22;4425;50.872;4.712;2023-02-01T07:06:44;5.40;99.90
8778;DHT22;4425;50.872;4.712;2023-02-01T07:09:11;5.40;99.90
8778;DHT22;4425;50.872;4.712;2023-02-01T07:11:39;5.40;99.90
8778;DHT22;4425;50.872;4.712;2023-02-01T07:14:08;5.30;99.90
8778;DHT22;4425;50.872;4.712;2023-02-01T07:16:36;5.30;99.90
8778;DHT22;4425;50.872;4.712;2023-02-01T07:19:04;5.30;99.90
8778;DHT22;4425;50.872;4.712;2023-02-01T07:21:31;5.30;99.90
8778;DHT22;4425;50.872;4.712;2023-02-01T07:23:58;5.30;99.90
8778;DHT22;4425;50.872;4.712;2023-02-01T07:26:26;5.30;99.90
8778;DHT22;4425;50.872;4.712;2023-02-01T07:28:54;5.30;99.90
8778;DHT22;4425;50.872;4.712;2023-02-01T07:31:21;5.30;99.90
8778;DHT22;4425;50.872;4.712;2023-02-01T07:33:52;5.30;99.90
8778;DHT22;4425;50.872;4.712;2023-02-01T07:36:22;5.30;99.90
8778;DHT22;4425;50.872;4.712;2023-02-01T07:38:50;5.20;99.90
8778;DHT22;4425;50.872;4.712;2023-02-01T07:41:17;5.20;99.90
8778;DHT22;4425;50.872;4.712;2023-02-01T07:43:44;5.20;99.90
8778;DHT22;4425;50.872;4.712;2023-02-01T07:46:11;5.30;99.90
8778;DHT22;4425;50.872;4.712;2023-02-01T07:48:40;5.30;99.90
8778;DHT22;4425;50.872;4.712;2023-02-01T07:51:10;5.30;99.90
8778;DHT22;4425;50.872;4.712;2023-02-01T07:53:39;5.40;99.90
8778;DHT22;4425;50.872;4.712;2023-02-01T07:56:11;5.40;99.90
8778;DHT22;4425;50.872;4.712;2023-02-01T07:58:38;5.50;99.90
8778;DHT22;4425;50.872;4.712;2023-02-01T08:01:05;5.40;99.90
8778;DHT22;4425;50.872;4.712;2023-02-01T08:03:46;5.40;99.90
8778;DHT22;4425;50.872;4.712;2023-02-01T08:06:13;5.50;99.90
8778;DHT22;4425;50.872;4.712;2023-02-01T08:08:42;5.40;99.90
8778;DHT22;4425;50.872;4.712;2023-02-01T08:11:10;5.60;99.90
8778;DHT22;4425;50.872;4.712;2023-02-01T08:13:37;5.70;99.90
8778;DHT22;4425;50.872;4.712;2023-02-01T08:16:07;5.80;99.90
8778;DHT22;4425;50.872;4.712;2023-02-01T08:18:35;5.80;99.90
8778;DHT22;4425;50.872;4.712;2023-02-01T08:21:06;5.90;99.90
8778;DHT22;4425;50.872;4.712;2023-02-01T08:23:36;5.90;99.90
8778;DHT22;4425;50.872;4.712;2023-02-01T08:26:07;6.00;99.90
8778;DHT22;4425;50.872;4.712;2023-02-01T08:28:35;6.00;99.90
8778;DHT22;4425;50.872;4.712;2023-02-01T08:31:07;6.00;99.90
8778;DHT22;4425;50.872;4.712;2023-02-01T08:33:34;6.10;99.90
8778;DHT22;4425;50.872;4.712;2023-02-01T08:36:03;6.10;99.90
8778;DHT22;4425;50.872;4.712;2023-02-01T08:38:31;6.10;99.90
8778;DHT22;4425;50.872;4.712;2023-02-01T08:41:02;6.10;99.90
8778;DHT22;4425;50.872;4.712;2023-02-01T08:43:31;6.20;99.90
8778;DHT22;4425;50.872;4.712;2023-02-01T08:45:58;6.20;99.90
8778;DHT22;4425;50.872;4.712;2023-02-01T08:48:25;6.20;99.90
8778;DHT22;4425;50.872;4.712;2023-02-01T08:50:52;6.30;99.90
8778;DHT22;4425;50.872;4.712;2023-02-01T08:53:19;6.40;99.90
8778;DHT22;4425;50.872;4.712;2023-02-01T08:55:46;6.40;99.90
8778;DHT22;4425;50.872;4.712;2023-02-01T08:58:14;6.40;99.90
8778;DHT22;4425;50.872;4.712;2023-02-01T09:00:44;6.50;99.90
8778;DHT22;4425;50.872;4.712;2023-02-01T09:03:15;6.60;99.90
8778;DHT22;4425;50.872;4.712;2023-02-01T09:05:43;6.60;99.90
8778;DHT22;4425;50.872;4.712;2023-02-01T09:08:11;6.60;99.90
8778;DHT22;4425;50.872;4.712;2023-02-01T09:10:42;6.60;99.90
8778;DHT22;4425;50.872;4.712;2023-02-01T09:13:09;6.70;99.90
8778;DHT22;4425;50.872;4.712;2023-02-01T09:15:37;6.60;99.90
8778;DHT22;4425;50.872;4.712;2023-02-01T09:18:07;6.60;99.90
8778;DHT22;4425;50.872;4.712;2023-02-01T09:20:34;6.60;99.90
8778;DHT22;4425;50.872;4.712;2023-02-01T09:23:01;6.60;99.90
8778;DHT22;4425;50.872;4.712;2023-02-01T09:25:28;6.70;99.90
8778;DHT22;4425;50.872;4.712;2023-02-01T09:27:55;6.80;99.90
8778;DHT22;4425;50.872;4.712;2023-02-01T09:30:22;6.80;99.90
8778;DHT22;4425;50.872;4.712;2023-02-01T09:32:49;7.00;99.90
8778;DHT22;4425;50.872;4.712;2023-02-01T09:35:17;7.00;99.90
8778;DHT22;4425;50.872;4.712;2023-02-01T09:37:44;7.00;99.90
8778;DHT22;4425;50.872;4.712;2023-02-01T09:40:14;7.00;99.90
8778;DHT22;4425;50.872;4.712;2023-02-01T09:43:00;7.00;99.90
8778;DHT22;4425;50.872;4.712;2023-02-01T09:45:35;7.10;99.90
8778;DHT22;4425;50.872;4.712;2023-02-01T09:48:10;7.00;99.90
8778;DHT22;4425;50.872;4.712;2023-02-01T09:50:43;7.10;99.90
8778;DHT22;4425;50.872;4.712;2023-02-01T09:53:15;7.10;99.90
8778;DHT22;4425;50.872;4.712;2023-02-01T09:55:47;7.10;99.90
8778;DHT22;4425;50.872;4.712;2023-02-01T09:58:19;7.20;99.90
8778;DHT22;4425;50.872;4.712;2023-02-01T10:00:51;7.30;99.90
8778;DHT22;4425;50.872;4.712;2023-02-01T10:03:18;7.30;99.90
8778;DHT22;4425;50.872;4.712;2023-02-01T10:06:02;7.40;99.90
8778;DHT22;4425;50.872;4.712;2023-02-01T10:08:39;7.40;99.90
8778;DHT22;4425;50.872;4.712;2023-02-01T10:11:20;7.50;99.90
8778;DHT22;4425;50.872;4.712;2023-02-01T10:14:00;7.50;99.90
8778;DHT22;4425;50.872;4.712;2023-02-01T10:16:37;7.60;99.90
8778;DHT22;4425;50.872;4.712;2023-02-01T10:19:19;7.60;99.90
8778;DHT22;4425;50.872;4.712;2023-02-01T10:21:55;7.70;99.90
8778;DHT22;4425;50.872;4.712;2023-02-01T10:24:38;7.70;99.90
8778;DHT22;4425;50.872;4.712;2023-02-01T10:27:13;7.80;99.90
8778;DHT22;4425;50.872;4.712;2023-02-01T10:29:42;7.90;99.90
8778;DHT22;4425;50.872;4.712;2023-02-01T10:32:17;8.00;99.90
8778;DHT22;4425;50.872;4.712;2023-02-01T10:34:48;8.00;99.90
8778;DHT22;4425;50.872;4.712;2023-02-01T10:37:27;8.10;99.90
8778;DHT22;4425;50.872;4.712;2023-02-01T10:39:56;8.20;99.90
8778;DHT22;4425;50.872;4.712;2023-02-01T10:42:26;8.10;99.90
8778;DHT22;4425;50.872;4.712;2023-02-01T10:44:55;8.20;99.90
8778;DHT22;4425;50.872;4.712;2023-02-01T10:47:24;8.30;99.90
8778;DHT22;4425;50.872;4.712;2023-02-01T10:49:56;8.40;99.90
8778;DHT22;4425;50.872;4.712;2023-02-01T10:52:35;8.30;99.90
8778;DHT22;4425;50.872;4.712;2023-02-01T10:55:31;8.50;99.90
8778;DHT22;4425;50.872;4.712;2023-02-01T10:58:01;8.50;99.90
8778;DHT22;4425;50.872;4.712;2023-02-01T11:00:37;8.60;99.90
8778;DHT22;4425;50.872;4.712;2023-02-01T11:03:21;8.60;99.90
8778;DHT22;4425;50.872;4.712;2023-02-01T11:05:48;8.70;99.90
8778;DHT22;4425;50.872;4.712;2023-02-01T11:08:18;8.70;99.90
8778;DHT22;4425;50.872;4.712;2023-02-01T11:10:46;8.70;99.90
8778;DHT22;4425;50.872;4.712;2023-02-01T11:13:15;8.80;99.90
8778;DHT22;4425;50.872;4.712;2023-02-01T11:15:46;8.80;99.90
8778;DHT22;4425;50.872;4.712;2023-02-01T11:18:16;9.00;99.90
8778;DHT22;4425;50.872;4.712;2023-02-01T11:20:45;9.10;99.90
8778;DHT22;4425;50.872;4.712;2023-02-01T11:23:17;9.20;99.90
8778;DHT22;4425;50.872;4.712;2023-02-01T11:25:50;9.20;99.90
8778;DHT22;4425;50.872;4.712;2023-02-01T11:28:21;9.30;99.90
8778;DHT22;4425;50.872;4.712;2023-02-01T11:30:52;9.20;99.90
8778;DHT22;4425;50.872;4.712;2023-02-01T11:33:22;9.30;99.90
8778;DHT22;4425;50.872;4.712;2023-02-01T11:35:53;9.20;99.90
8778;DHT22;4425;50.872;4.712;2023-02-01T11:38:26;9.30;99.90
8778;DHT22;4425;50.872;4.712;2023-02-01T11:40:54;9.50;99.90
8778;DHT22;4425;50.872;4.712;2023-02-01T11:43:24;9.50;99.90
8778;DHT22;4425;50.872;4.712;2023-02-01T11:45:56;9.40;99.90
8778;DHT22;4425;50.872;4.712;2023-02-01T11:48:25;9.40;99.90
8778;DHT22;4425;50.872;4.712;2023-02-01T11:51:08;9.50;99.90
8778;DHT22;4425;50.872;4.712;2023-02-01T11:53:59;9.60;99.90
8778;DHT22;4425;50.872;4.712;2023-02-01T11:56:36;9.90;99.90
8778;DHT22;4425;50.872;4.712;2023-02-01T11:59:21;9.70;99.90
8778;DHT22;4425;50.872;4.712;2023-02-01T12:02:14;9.60;99.90
8778;DHT22;4425;50.872;4.712;2023-02-01T12:05:04;9.50;99.90
8778;DHT22;4425;50.872;4.712;2023-02-01T12:10:33;9.60;99.90
8778;DHT22;4425;50.872;4.712;2023-02-01T12:13:14;9.70;99.90
8778;DHT22;4425;50.872;4.712;2023-02-01T12:15:56;9.60;99.90
8778;DHT22;4425;50.872;4.712;2023-02-01T12:18:43;9.70;99.90
8778;DHT22;4425;50.872;4.712;2023-02-01T12:21:30;9.70;99.90
8778;DHT22;4425;50.872;4.712;2023-02-01T12:24:18;9.70;99.90
8778;DHT22;4425;50.872;4.712;2023-02-01T12:27:10;9.80;99.90
8778;DHT22;4425;50.872;4.712;2023-02-01T12:29:59;9.90;99.90
8778;DHT22;4425;50.872;4.712;2023-02-01T12:32:41;9.80;99.90
8778;DHT22;4425;50.872;4.712;2023-02-01T12:35:30;9.90;99.90
8778;DHT22;4425;50.872;4.712;2023-02-01T12:38:12;9.90;99.90
8778;DHT22;4425;50.872;4.712;2023-02-01T12:40:59;10.10;99.90
8778;DHT22;4425;50.872;4.712;2023-02-01T12:43:45;10.00;99.90
8778;DHT22;4425;50.872;4.712;2023-02-01T12:46:25;9.90;99.90
8778;DHT22;4425;50.872;4.712;2023-02-01T12:49:00;10.00;99.90
8778;DHT22;4425;50.872;4.712;2023-02-01T12:51:34;10.10;99.90
8778;DHT22;4425;50.872;4.712;2023-02-01T12:54:08;10.10;99.90
8778;DHT22;4425;50.872;4.712;2023-02-01T12:56:43;10.10;99.90
8778;DHT22;4425;50.872;4.712;2023-02-01T12:59:19;10.10;99.90
8778;DHT22;4425;50.872;4.712;2023-02-01T13:01:51;10.20;99.90
8778;DHT22;4425;50.872;4.712;2023-02-01T13:04:26;10.20;99.90
8778;DHT22;4425;50.872;4.712;2023-02-01T13:07:02;10.10;99.90
8778;DHT22;4425;50.872;4.712;2023-02-01T13:09:38;10.10;99.90
8778;DHT22;4425;50.872;4.712;2023-02-01T13:12:13;10.10;99.90
8778;DHT22;4425;50.872;4.712;2023-02-01T13:14:48;10.10;99.90
8778;DHT22;4425;50.872;4.712;2023-02-01T13:17:22;10.20;99.90
8778;DHT22;4425;50.872;4.712;2023-02-01T13:19:54;10.30;99.90
8778;DHT22;4425;50.872;4.712;2023-02-01T13:22:25;10.10;99.90
8778;DHT22;4425;50.872;4.712;2023-02-01T13:24:58;10.30;99.90
8778;DHT22;4425;50.872;4.712;2023-02-01T13:27:29;10.20;99.90
8778;DHT22;4425;50.872;4.712;2023-02-01T13:30:01;10.00;99.90
8778;DHT22;4425;50.872;4.712;2023-02-01T13:33:06;10.20;99.90
8778;DHT22;4425;50.872;4.712;2023-02-01T13:35:56;10.30;99.90
8778;DHT22;4425;50.872;4.712;2023-02-01T13:41:27;10.30;99.90
8778;DHT22;4425;50.872;4.712;2023-02-01T13:43:58;10.30;99.90
8778;DHT22;4425;50.872;4.712;2023-02-01T13:46:39;10.40;99.90
8778;DHT22;4425;50.872;4.712;2023-02-01T13:49:07;10.30;99.90
8778;DHT22;4425;50.872;4.712;2023-02-01T13:51:45;10.30;99.90
8778;DHT22;4425;50.872;4.712;2023-02-01T13:54:29;10.30;99.90
8778;DHT22;4425;50.872;4.712;2023-02-01T13:56:59;10.30;99.90
8778;DHT22;4425;50.872;4.712;2023-02-01T14:00:07;10.40;99.90
8778;DHT22;4425;50.872;4.712;2023-02-01T14:03:08;10.40;99.90
8778;DHT22;4425;50.872;4.712;2023-02-01T14:09:16;10.30;99.90
8778;DHT22;4425;50.872;4.712;2023-02-01T14:11:47;10.30;99.90
8778;DHT22;4425;50.872;4.712;2023-02-01T14:14:45;10.30;99.90
8778;DHT22;4425;50.872;4.712;2023-02-01T14:17:31;10.30;99.90
8778;DHT22;4425;50.872;4.712;2023-02-01T14:23:24;10.30;99.90
8778;DHT22;4425;50.872;4.712;2023-02-01T14:26:17;10.20;99.90
8778;DHT22;4425;50.872;4.712;2023-02-01T14:29:03;10.20;99.90
8778;DHT22;4425;50.872;4.712;2023-02-01T14:31:59;10.20;99.90
8778;DHT22;4425;50.872;4.712;2023-02-01T14:34:40;10.20;99.90
8778;DHT22;4425;50.872;4.712;2023-02-01T14:37:25;10.20;99.90
8778;DHT22;4425;50.872;4.712;2023-02-01T14:39:57;10.20;99.90
8778;DHT22;4425;50.872;4.712;2023-02-01T14:42:29;10.20;99.90
8778;DHT22;4425;50.872;4.712;2023-02-01T14:50:59;10.10;99.90
8778;DHT22;4425;50.872;4.712;2023-02-01T14:53:33;10.10;99.90
8778;DHT22;4425;50.872;4.712;2023-02-01T14:56:07;10.00;99.90
8778;DHT22;4425;50.872;4.712;2023-02-01T14:58:49;10.10;99.90
8778;DHT22;4425;50.872;4.712;2023-02-01T15:01:21;10.00;99.90
8778;DHT22;4425;50.872;4.712;2023-02-01T15:03:54;10.00;99.90
8778;DHT22;4425;50.872;4.712;2023-02-01T15:06:36;10.00;99.90
8778;DHT22;4425;50.872;4.712;2023-02-01T15:09:09;9.90;99.90
8778;DHT22;4425;50.872;4.712;2023-02-01T15:11:56;9.90;99.90
8778;DHT22;4425;50.872;4.712;2023-02-01T15:14:24;9.90;99.90
8778;DHT22;4425;50.872;4.712;2023-02-01T15:16:51;9.80;99.90
8778;DHT22;4425;50.872;4.712;2023-02-01T15:19:23;9.80;99.90
8778;DHT22;4425;50.872;4.712;2023-02-01T15:21:52;9.80;99.90
8778;DHT22;4425;50.872;4.712;2023-02-01T15:24:22;9.80;99.90
8778;DHT22;4425;50.872;4.712;2023-02-01T15:26:50;9.70;99.90
8778;DHT22;4425;50.872;4.712;2023-02-01T15:29:20;9.70;99.90
8778;DHT22;4425;50.872;4.712;2023-02-01T15:31:50;9.70;99.90
8778;DHT22;4425;50.872;4.712;2023-02-01T15:34:18;9.80;99.90
8778;DHT22;4425;50.872;4.712;2023-02-01T15:36:46;9.70;99.90
8778;DHT22;4425;50.872;4.712;2023-02-01T15:39:22;9.50;99.90
8778;DHT22;4425;50.872;4.712;2023-02-01T15:41:55;9.70;99.90
8778;DHT22;4425;50.872;4.712;2023-02-01T15:44:32;9.60;99.90
8778;DHT22;4425;50.872;4.712;2023-02-01T15:47:06;9.60;99.90
8778;DHT22;4425;50.872;4.712;2023-02-01T15:49:38;9.70;99.90
8778;DHT22;4425;50.872;4.712;2023-02-01T15:52:21;9.70;99.90
8778;DHT22;4425;50.872;4.712;2023-02-01T15:54:50;9.50;99.90
8778;DHT22;4425;50.872;4.712;2023-02-01T15:57:21;9.50;99.90
8778;DHT22;4425;50.872;4.712;2023-02-01T16:00:00;9.60;99.90
8778;DHT22;4425;50.872;4.712;2023-02-01T16:02:34;9.50;99.90
8778;DHT22;4425;50.872;4.712;2023-02-01T16:05:05;9.50;99.90
8778;DHT22;4425;50.872;4.712;2023-02-01T16:07:34;9.50;99.90
8778;DHT22;4425;50.872;4.712;2023-02-01T16:10:21;9.50;99.90
8778;DHT22;4425;50.872;4.712;2023-02-01T16:12:49;9.50;99.90
8778;DHT22;4425;50.872;4.712;2023-02-01T16:15:23;9.60;99.90
8778;DHT22;4425;50.872;4.712;2023-02-01T16:17:50;9.40;99.90
8778;DHT22;4425;50.872;4.712;2023-02-01T16:20:17;9.40;99.90
8778;DHT22;4425;50.872;4.712;2023-02-01T16:22:44;9.30;99.90
8778;DHT22;4425;50.872;4.712;2023-02-01T16:25:11;9.30;99.90
8778;DHT22;4425;50.872;4.712;2023-02-01T16:27:39;9.30;99.90
8778;DHT22;4425;50.872;4.712;2023-02-01T16:30:08;9.40;99.90
8778;DHT22;4425;50.872;4.712;2023-02-01T16:32:38;9.30;99.90
8778;DHT22;4425;50.872;4.712;2023-02-01T16:35:08;9.30;99.90
8778;DHT22;4425;50.872;4.712;2023-02-01T16:37:42;9.30;99.90
8778;DHT22;4425;50.872;4.712;2023-02-01T16:40:13;9.30;99.90
8778;DHT22;4425;50.872;4.712;2023-02-01T16:42:41;9.20;99.90
8778;DHT22;4425;50.872;4.712;2023-02-01T16:45:09;9.20;99.90
8778;DHT22;4425;50.872;4.712;2023-02-01T16:47:45;9.20;99.90
8778;DHT22;4425;50.872;4.712;2023-02-01T16:50:15;9.10;99.90
8778;DHT22;4425;50.872;4.712;2023-02-01T16:52:44;9.10;99.90
8778;DHT22;4425;50.872;4.712;2023-02-01T16:55:15;9.10;99.90
8778;DHT22;4425;50.872;4.712;2023-02-01T16:57:43;9.10;99.90
8778;DHT22;4425;50.872;4.712;2023-02-01T17:00:13;9.10;99.90
8778;DHT22;4425;50.872;4.712;2023-02-01T17:02:42;9.10;99.90
8778;DHT22;4425;50.872;4.712;2023-02-01T17:05:13;9.10;99.90
8778;DHT22;4425;50.872;4.712;2023-02-01T17:07:45;9.10;99.90
8778;DHT22;4425;50.872;4.712;2023-02-01T17:10:22;9.10;99.90
8778;DHT22;4425;50.872;4.712;2023-02-01T17:12:49;9.10;99.90
8778;DHT22;4425;50.872;4.712;2023-02-01T17:15:16;9.10;99.90